createdAt,value
2018-09-13T00:02:13.217Z,5.33
2018-09-13T00:04:41.565Z,5.70
2018-09-13T00:07:09.930Z,5.70
2018-09-13T00:09:38.298Z,5.97
2018-09-13T00:12:06.660Z,5.97
2018-09-13T00:14:35.002Z,6.37
2018-09-13T00:17:03.388Z,5.97
2018-09-13T00:19:31.786Z,6.50
2018-09-13T00:22:00.175Z,6.30
2018-09-13T00:24:28.597Z,6.50
2018-09-13T00:26:57.247Z,6.70
2018-09-13T00:29:25.632Z,6.40
2018-09-13T00:31:53.992Z,6.13
2018-09-13T00:34:22.427Z,6.47
2018-09-13T00:36:51.041Z,6.63
2018-09-13T00:39:19.383Z,6.60
2018-09-13T00:41:47.754Z,6.40
2018-09-13T00:44:16.118Z,5.93
2018-09-13T00:46:44.487Z,6.97
2018-09-13T00:49:12.834Z,6.00
2018-09-13T00:51:41.185Z,6.77
2018-09-13T00:54:09.553Z,6.20
2018-09-13T00:56:37.880Z,6.80
2018-09-13T00:59:06.350Z,6.43
2018-09-13T01:01:34.822Z,7.03
2018-09-13T01:04:03.163Z,6.70
2018-09-13T01:06:31.529Z,6.60
2018-09-13T01:09:00.094Z,6.70
2018-09-13T01:11:28.811Z,6.40
2018-09-13T01:13:57.169Z,6.47
2018-09-13T01:16:25.529Z,6.57
2018-09-13T01:18:53.887Z,6.47
2018-09-13T01:21:22.206Z,6.50
2018-09-13T01:23:50.556Z,6.07
2018-09-13T01:26:18.893Z,6.00
2018-09-13T01:28:47.304Z,6.07
2018-09-13T01:31:15.682Z,6.27
2018-09-13T01:33:44.074Z,5.60
2018-09-13T01:36:12.829Z,6.10
2018-09-13T01:38:41.209Z,6.27
2018-09-13T01:41:09.553Z,5.47
2018-09-13T01:43:37.944Z,5.43
2018-09-13T01:46:06.378Z,5.63
2018-09-13T01:48:34.698Z,5.73
2018-09-13T01:51:03.192Z,5.27
2018-09-13T01:53:31.607Z,5.50
2018-09-13T01:55:59.943Z,5.20
2018-09-13T01:58:28.310Z,5.80
2018-09-13T02:03:31.400Z,5.30
2018-09-13T02:05:59.743Z,5.07
2018-09-13T02:08:28.141Z,5.23
2018-09-13T02:10:56.563Z,5.57
2018-09-13T02:13:25.035Z,5.60
2018-09-13T02:15:53.378Z,5.07
2018-09-13T02:18:21.778Z,5.33
2018-09-13T02:20:50.151Z,5.07
2018-09-13T02:23:18.545Z,5.40
2018-09-13T02:25:46.875Z,5.10
2018-09-13T02:28:15.213Z,5.90
2018-09-13T02:30:43.628Z,5.60
2018-09-13T02:33:11.958Z,5.70
2018-09-13T02:35:40.385Z,6.20
2018-09-13T02:38:08.765Z,5.20
2018-09-13T02:40:37.137Z,5.80
2018-09-13T02:43:05.550Z,5.97
2018-09-13T02:45:33.953Z,5.47
2018-09-13T02:48:02.302Z,5.17
2018-09-13T02:50:30.628Z,5.80
2018-09-13T02:52:59.020Z,5.30
2018-09-13T02:55:27.337Z,5.70
2018-09-13T02:57:55.715Z,5.13
2018-09-13T03:00:24.475Z,5.93
2018-09-13T03:02:52.796Z,6.00
2018-09-13T03:05:21.119Z,5.60
2018-09-13T03:07:49.456Z,5.80
2018-09-13T03:10:17.835Z,5.53
2018-09-13T03:12:46.214Z,6.00
2018-09-13T03:15:15.767Z,5.87
2018-09-13T03:17:44.250Z,5.93
2018-09-13T03:20:12.578Z,6.23
2018-09-13T03:22:40.926Z,5.67
2018-09-13T03:25:10.359Z,6.20
2018-09-13T03:27:38.765Z,6.07
2018-09-13T03:30:08.197Z,6.00
2018-09-13T03:32:36.639Z,5.90
2018-09-13T03:35:06.108Z,6.43
2018-09-13T03:37:34.460Z,6.10
2018-09-13T03:40:03.364Z,5.90
2018-09-13T03:42:31.734Z,6.00
2018-09-13T03:47:40.935Z,6.30
2018-09-13T03:50:11.212Z,6.20
2018-09-13T03:52:40.732Z,5.77
2018-09-13T03:55:10.567Z,6.13
2018-09-13T03:57:39.279Z,6.30
2018-09-13T04:00:08.095Z,6.97
2018-09-13T04:02:36.544Z,6.50
2018-09-13T04:05:05.089Z,5.70
2018-09-13T04:07:33.884Z,6.27
2018-09-13T04:10:02.254Z,5.83
2018-09-13T04:12:31.753Z,6.27
2018-09-13T04:15:00.148Z,6.30
2018-09-13T04:17:28.560Z,6.10
2018-09-13T04:19:56.976Z,5.37
2018-09-13T04:22:25.380Z,5.50
2018-09-13T04:24:54.070Z,5.63
2018-09-13T04:27:22.527Z,6.10
2018-09-13T04:29:50.942Z,5.67
2018-09-13T04:32:19.312Z,6.03
2018-09-13T04:34:47.706Z,6.20
2018-09-13T04:37:17.073Z,6.30
2018-09-13T04:39:45.484Z,6.13
2018-09-13T04:42:14.092Z,6.17
2018-09-13T04:44:42.530Z,6.87
2018-09-13T04:47:10.952Z,6.07
2018-09-13T04:49:39.470Z,6.17
2018-09-13T04:52:07.912Z,6.30
2018-09-13T04:54:36.320Z,6.60
2018-09-13T04:57:04.843Z,6.53
2018-09-13T04:59:33.183Z,7.70
2018-09-13T05:02:01.578Z,7.00
2018-09-13T05:04:30.273Z,6.00
2018-09-13T05:06:58.625Z,6.53
2018-09-13T05:09:27.060Z,6.40
2018-09-13T05:11:55.401Z,6.20
2018-09-13T05:14:24.831Z,6.10
2018-09-13T05:16:53.211Z,7.93
2018-09-13T05:19:21.568Z,7.33
2018-09-13T05:21:50.116Z,6.47
2018-09-13T05:24:18.565Z,6.40
2018-09-13T05:26:46.899Z,6.53
2018-09-13T05:29:15.247Z,6.27
2018-09-13T05:31:43.722Z,6.57
2018-09-13T05:34:12.076Z,6.73
2018-09-13T05:36:40.512Z,6.83
2018-09-13T05:39:12.688Z,6.30
2018-09-13T05:41:42.030Z,6.53
2018-09-13T05:44:10.321Z,7.00
2018-09-13T05:46:38.973Z,7.03
2018-09-13T05:49:07.436Z,6.90
2018-09-13T05:51:36.103Z,7.03
2018-09-13T05:54:11.146Z,7.53
2018-09-13T05:56:39.489Z,7.00
2018-09-13T05:59:07.833Z,7.13
2018-09-13T06:01:36.297Z,7.17
2018-09-13T06:04:04.644Z,7.10
2018-09-13T06:06:32.996Z,7.20
2018-09-13T06:09:01.336Z,7.93
2018-09-13T06:11:29.665Z,7.43
2018-09-13T06:13:58.009Z,7.17
2018-09-13T06:16:26.429Z,7.50
2018-09-13T06:18:54.840Z,7.33
2018-09-13T06:21:23.231Z,8.37
2018-09-13T06:23:51.591Z,8.93
2018-09-13T06:26:19.982Z,8.03
2018-09-13T06:28:48.365Z,7.53
2018-09-13T06:31:16.759Z,7.77
2018-09-13T06:33:45.432Z,7.60
2018-09-13T06:36:14.758Z,7.70
2018-09-13T06:38:43.102Z,7.80
2018-09-13T06:41:11.548Z,8.30
2018-09-13T06:43:39.839Z,8.33
2018-09-13T06:46:08.300Z,7.73
2018-09-13T06:48:36.847Z,7.80
2018-09-13T06:51:05.254Z,8.23
2018-09-13T06:53:34.015Z,8.80
2018-09-13T06:56:03.422Z,7.20
2018-09-13T06:58:32.835Z,7.13
2018-09-13T07:01:01.336Z,7.37
2018-09-13T07:03:30.690Z,7.00
2018-09-13T07:05:59.065Z,7.40
2018-09-13T07:08:27.451Z,7.33
2018-09-13T07:10:56.670Z,7.30
2018-09-13T07:13:25.479Z,7.93
2018-09-13T07:15:53.920Z,7.57
2018-09-13T07:18:22.321Z,7.90
2018-09-13T07:20:50.677Z,7.43
2018-09-13T07:23:19.015Z,7.53
2018-09-13T07:25:47.480Z,7.77
2018-09-13T07:28:15.856Z,9.23
2018-09-13T07:30:44.328Z,10.07
2018-09-13T07:33:12.681Z,8.87
2018-09-13T07:35:41.216Z,8.63
2018-09-13T07:38:09.811Z,9.23
2018-09-13T07:40:38.213Z,9.43
2018-09-13T07:43:07.659Z,9.50
2018-09-13T07:45:36.144Z,9.60
2018-09-13T07:48:04.605Z,9.30
2018-09-13T07:50:33.147Z,9.33
2018-09-13T07:53:01.475Z,10.00
2018-09-13T07:55:29.977Z,9.73
2018-09-13T07:57:58.750Z,10.17
2018-09-13T08:00:27.081Z,10.37
2018-09-13T08:02:55.480Z,9.93
2018-09-13T08:05:23.850Z,10.43
2018-09-13T08:07:52.191Z,9.93
2018-09-13T08:10:20.623Z,10.27
2018-09-13T08:12:48.970Z,10.90
2018-09-13T08:15:17.336Z,9.53
2018-09-13T08:17:45.724Z,9.67
2018-09-13T08:20:14.093Z,10.40
2018-09-13T08:22:42.461Z,9.40
2018-09-13T08:25:10.880Z,10.37
2018-09-13T08:27:39.256Z,9.87
2018-09-13T08:30:07.716Z,10.27
2018-09-13T08:32:36.100Z,9.90
2018-09-13T08:35:04.575Z,11.07
2018-09-13T08:37:32.923Z,10.43
2018-09-13T08:40:01.331Z,10.30
2018-09-13T08:42:29.773Z,10.90
2018-09-13T08:44:58.106Z,10.77
2018-09-13T08:47:26.464Z,10.83
2018-09-13T08:49:54.775Z,10.57
2018-09-13T08:52:23.091Z,11.50
2018-09-13T08:54:51.392Z,10.90
2018-09-13T08:57:19.755Z,10.93
2018-09-13T08:59:48.060Z,11.00
2018-09-13T09:02:16.422Z,10.90
2018-09-13T09:04:44.870Z,11.07
2018-09-13T09:07:13.178Z,10.80
2018-09-13T09:09:41.821Z,10.30
2018-09-13T09:12:10.363Z,11.23
2018-09-13T09:14:38.693Z,11.33
2018-09-13T09:17:07.177Z,11.60
2018-09-13T09:19:35.522Z,11.07
2018-09-13T09:22:03.845Z,11.20
2018-09-13T09:24:32.145Z,11.80
2018-09-13T09:27:00.749Z,10.83
2018-09-13T09:29:29.100Z,12.90
2018-09-13T09:31:57.452Z,12.43
2018-09-13T09:34:25.792Z,11.63
2018-09-13T09:36:54.165Z,12.87
2018-09-13T09:39:22.481Z,11.80
2018-09-13T09:41:50.815Z,12.20
2018-09-13T09:44:19.250Z,11.97
2018-09-13T09:46:47.488Z,11.80
2018-09-13T09:49:15.816Z,11.53
2018-09-13T09:51:44.134Z,11.37
2018-09-13T09:54:12.424Z,11.90
2018-09-13T09:56:40.809Z,10.97
2018-09-13T09:59:09.200Z,11.57
2018-09-13T10:01:42.900Z,12.17
2018-09-13T10:04:12.566Z,12.10
2018-09-13T10:06:41.823Z,11.80
2018-09-13T10:09:10.223Z,11.20
2018-09-13T10:11:38.623Z,11.07
2018-09-13T10:14:07.194Z,11.90
2018-09-13T10:16:40.928Z,12.17
2018-09-13T10:20:18.663Z,12.20
2018-09-13T10:22:52.525Z,11.50
2018-09-13T10:25:26.251Z,12.10
2018-09-13T10:28:00.061Z,11.00
2018-09-13T10:30:33.666Z,11.83
2018-09-13T10:33:07.465Z,12.20
2018-09-13T10:35:41.268Z,11.20
2018-09-13T10:38:14.985Z,10.77
2018-09-13T10:40:48.847Z,12.20
2018-09-13T10:43:22.615Z,11.53
2018-09-13T10:45:56.306Z,12.00
2018-09-13T10:48:29.473Z,12.77
2018-09-13T10:51:03.314Z,11.70
2018-09-13T10:53:51.077Z,11.90
2018-09-13T10:56:19.677Z,11.07
2018-09-13T10:58:48.146Z,11.67
2018-09-13T11:01:17.582Z,10.90
2018-09-13T11:03:46.194Z,12.57
2018-09-13T11:06:14.576Z,11.57
2018-09-13T11:08:42.905Z,11.57
2018-09-13T11:11:11.423Z,11.03
2018-09-13T11:14:47.842Z,12.23
2018-09-13T11:17:16.319Z,12.00
2018-09-13T11:19:44.754Z,10.97
2018-09-13T11:22:13.255Z,11.40
2018-09-13T11:24:41.704Z,10.60
2018-09-13T11:27:10.206Z,10.93
2018-09-13T11:29:38.506Z,10.37
2018-09-13T11:32:06.855Z,12.30
2018-09-13T11:34:35.224Z,11.77
2018-09-13T11:37:03.553Z,13.93
2018-09-13T11:39:31.847Z,12.23
2018-09-13T11:42:00.313Z,12.67
2018-09-13T11:44:28.661Z,13.40
2018-09-13T11:46:57.252Z,12.00
2018-09-13T11:49:25.559Z,10.00
2018-09-13T11:51:53.983Z,10.07
2018-09-13T11:54:22.390Z,10.27
2018-09-13T11:56:50.716Z,10.73
2018-09-13T11:59:19.112Z,10.20
2018-09-13T12:01:47.461Z,10.00
2018-09-13T12:04:15.792Z,9.63
2018-09-13T12:06:44.088Z,9.47
2018-09-13T12:09:13.973Z,9.87
2018-09-13T12:11:42.463Z,9.47
2018-09-13T12:14:11.133Z,9.37
2018-09-13T12:16:39.225Z,10.63
2018-09-13T12:19:08.207Z,10.30
2018-09-13T12:21:36.563Z,9.90
2018-09-13T12:24:05.658Z,11.00
2018-09-13T12:26:33.963Z,10.17
2018-09-13T12:29:02.623Z,10.40
2018-09-13T12:31:31.102Z,10.33
2018-09-13T12:33:59.608Z,10.40
2018-09-13T12:36:28.641Z,9.90
2018-09-13T12:38:57.163Z,9.37
2018-09-13T12:41:25.474Z,9.10
2018-09-13T12:43:53.801Z,11.70
2018-09-13T12:46:22.161Z,10.07
2018-09-13T12:48:50.570Z,10.23
2018-09-13T12:51:18.888Z,8.80
2018-09-13T12:53:47.253Z,9.33
2018-09-13T12:56:15.675Z,8.40
2018-09-13T12:58:44.068Z,9.13
2018-09-13T13:01:12.636Z,9.60
2018-09-13T13:03:40.988Z,10.10
2018-09-13T13:06:09.321Z,8.00
2018-09-13T13:08:37.867Z,9.23
2018-09-13T13:11:06.552Z,8.67
2018-09-13T13:13:34.915Z,8.40
2018-09-13T13:16:03.288Z,8.47
2018-09-13T13:18:31.852Z,8.90
2018-09-13T13:21:00.406Z,8.33
2018-09-13T13:23:28.843Z,8.03
2018-09-13T13:25:57.385Z,8.70
2018-09-13T13:28:25.691Z,7.30
2018-09-13T13:30:54.095Z,9.00
2018-09-13T13:33:22.477Z,8.17
2018-09-13T13:35:50.900Z,6.87
2018-09-13T13:38:19.491Z,7.27
2018-09-13T13:40:47.930Z,7.23
2018-09-13T13:43:16.267Z,7.40
2018-09-13T13:45:45.918Z,6.67
2018-09-13T13:48:14.360Z,6.43
2018-09-13T13:50:43.897Z,6.80
2018-09-13T13:53:12.297Z,6.43
2018-09-13T13:55:40.755Z,6.60
2018-09-13T13:58:10.088Z,6.37
2018-09-13T14:00:38.515Z,7.00
2018-09-13T14:03:06.956Z,6.13
2018-09-13T14:05:35.664Z,6.17
2018-09-13T14:08:04.155Z,6.37
2018-09-13T14:10:32.628Z,7.03
2018-09-13T14:13:00.990Z,6.37
2018-09-13T14:15:29.432Z,6.63
2018-09-13T14:17:58.784Z,6.23
2018-09-13T14:20:27.293Z,6.67
2018-09-13T14:22:55.731Z,6.83
2018-09-13T14:25:24.199Z,6.30
2018-09-13T14:27:52.749Z,6.40
2018-09-13T14:30:22.265Z,6.10
2018-09-13T14:32:50.648Z,6.20
2018-09-13T14:35:19.033Z,6.30
2018-09-13T14:37:47.493Z,6.60
2018-09-13T14:40:15.829Z,6.37
2018-09-13T14:42:44.219Z,6.70
2018-09-13T14:45:12.618Z,5.83
2018-09-13T14:47:41.052Z,5.70
2018-09-13T14:50:09.428Z,5.03
2018-09-13T14:52:37.914Z,5.17
2018-09-13T14:55:06.352Z,4.43
2018-09-13T14:57:34.767Z,5.63
2018-09-13T15:00:03.330Z,5.30
2018-09-13T15:02:31.662Z,5.00
2018-09-13T15:05:00.024Z,5.53
2018-09-13T15:07:28.395Z,4.87
2018-09-13T15:09:56.687Z,5.23
2018-09-13T15:12:25.079Z,4.93
2018-09-13T15:14:53.419Z,5.30
2018-09-13T15:17:21.795Z,5.80
2018-09-13T15:19:50.302Z,5.17
2018-09-13T15:22:18.627Z,5.43
2018-09-13T15:24:46.949Z,5.73
2018-09-13T15:27:15.303Z,5.20
2018-09-13T15:29:43.683Z,5.80
2018-09-13T15:32:12.030Z,4.77
2018-09-13T15:34:40.568Z,5.17
2018-09-13T15:37:09.058Z,5.77
2018-09-13T15:39:37.440Z,5.20
2018-09-13T15:42:05.795Z,5.97
2018-09-13T15:44:34.132Z,5.20
2018-09-13T15:47:02.680Z,5.10
2018-09-13T15:49:31.002Z,5.80
2018-09-13T15:51:59.330Z,5.37
2018-09-13T15:54:27.899Z,5.67
2018-09-13T15:57:03.172Z,5.70
2018-09-13T15:59:31.717Z,5.23
2018-09-13T16:02:00.198Z,5.50
2018-09-13T16:04:29.542Z,5.17
2018-09-13T16:06:58.054Z,5.43
2018-09-13T16:09:26.442Z,5.30
2018-09-13T16:11:55.765Z,5.97
2018-09-13T16:14:24.473Z,5.07
2018-09-13T16:16:53.667Z,5.20
2018-09-13T16:19:22.070Z,5.13
2018-09-13T16:21:50.571Z,5.53
2018-09-13T16:24:19.598Z,5.30
2018-09-13T16:26:48.070Z,5.13
2018-09-13T16:29:16.452Z,5.70
2018-09-13T16:31:44.846Z,5.50
2018-09-13T16:34:13.211Z,5.43
2018-09-13T16:36:46.996Z,5.33
2018-09-13T16:39:24.508Z,5.50
2018-09-13T16:41:58.072Z,5.10
2018-09-13T16:44:31.718Z,5.60
2018-09-13T16:47:06.390Z,5.13
2018-09-13T16:49:36.608Z,5.50
2018-09-13T16:52:05.004Z,5.13
2018-09-13T16:54:33.322Z,5.30
2018-09-13T16:57:02.062Z,5.53
2018-09-13T16:59:30.420Z,5.30
2018-09-13T17:01:59.170Z,5.27
2018-09-13T17:04:27.485Z,5.37
2018-09-13T17:06:55.970Z,5.93
2018-09-13T17:09:25.125Z,5.33
2018-09-13T17:11:53.448Z,5.27
2018-09-13T17:14:21.819Z,4.97
2018-09-13T17:16:50.387Z,5.47
2018-09-13T17:19:18.719Z,5.37
2018-09-13T17:21:47.053Z,5.50
2018-09-13T17:24:16.478Z,6.03
2018-09-13T17:26:44.840Z,5.33
2018-09-13T17:29:13.264Z,5.80
2018-09-13T17:31:41.619Z,5.57
2018-09-13T17:34:10.162Z,5.30
2018-09-13T17:36:38.802Z,6.10
2018-09-13T17:39:11.227Z,5.80
2018-09-13T17:41:39.666Z,5.47
2018-09-13T17:44:08.048Z,5.73
2018-09-13T17:46:36.579Z,6.30
2018-09-13T17:49:05.021Z,5.43
2018-09-13T17:51:33.401Z,5.23
2018-09-13T17:54:01.874Z,5.87
2018-09-13T17:56:30.477Z,5.10
2018-09-13T17:58:58.844Z,4.90
2018-09-13T18:01:27.360Z,5.53
2018-09-13T18:03:55.788Z,5.47
2018-09-13T18:06:24.247Z,5.50
2018-09-13T18:08:52.672Z,5.57
2018-09-13T18:11:21.198Z,5.77
2018-09-13T18:13:50.315Z,6.07
2018-09-13T18:16:18.985Z,6.60
2018-09-13T18:18:47.565Z,7.20
2018-09-13T18:21:15.957Z,11.27
2018-09-13T18:23:44.435Z,23.67
2018-09-13T18:26:12.860Z,13.53
2018-09-13T18:28:41.357Z,14.97
2018-09-13T18:31:09.856Z,8.90
2018-09-13T18:33:38.378Z,16.67
2018-09-13T18:36:06.826Z,9.60
2018-09-13T18:38:35.368Z,8.77
2018-09-13T18:41:05.035Z,7.93
2018-09-13T18:43:33.465Z,5.87
2018-09-13T18:46:01.989Z,5.57
2018-09-13T18:48:30.464Z,5.10
2018-09-13T18:50:58.866Z,5.90
2018-09-13T18:53:27.265Z,5.80
2018-09-13T18:55:55.683Z,6.03
2018-09-13T18:58:24.185Z,6.70
2018-09-13T19:00:52.682Z,5.53
2018-09-13T19:03:21.133Z,5.20
2018-09-13T19:05:49.608Z,5.40
2018-09-13T19:08:18.016Z,5.50
2018-09-13T19:10:46.582Z,5.90
2018-09-13T19:13:15.020Z,5.40
2018-09-13T19:15:43.392Z,5.87
2018-09-13T19:18:11.943Z,5.30
2018-09-13T19:20:40.479Z,6.20
2018-09-13T19:23:08.863Z,5.63
2018-09-13T19:25:43.961Z,5.37
2018-09-13T19:28:12.353Z,5.20
2018-09-13T19:30:40.755Z,4.77
2018-09-13T19:33:09.224Z,5.30
2018-09-13T19:35:37.732Z,5.30
2018-09-13T19:38:06.436Z,5.30
2018-09-13T19:40:34.939Z,5.23
2018-09-13T19:43:03.339Z,5.17
2018-09-13T19:45:31.737Z,5.63
2018-09-13T19:48:00.135Z,4.90
2018-09-13T19:50:28.614Z,5.03
2018-09-13T19:52:56.933Z,5.50
2018-09-13T19:55:25.428Z,5.60
2018-09-13T19:57:53.802Z,5.80
2018-09-13T20:00:22.183Z,5.67
2018-09-13T20:02:50.507Z,5.77
2018-09-13T20:05:18.959Z,5.30
2018-09-13T20:07:47.293Z,6.07
2018-09-13T20:10:15.781Z,5.60
2018-09-13T20:12:44.125Z,5.60
2018-09-13T20:15:12.583Z,5.77
2018-09-13T20:17:40.939Z,6.07
2018-09-13T20:20:09.332Z,6.13
2018-09-13T20:22:37.700Z,5.60
2018-09-13T20:25:06.128Z,6.43
2018-09-13T20:27:34.544Z,6.33
2018-09-13T20:30:02.941Z,5.80
2018-09-13T20:32:31.358Z,5.97
2018-09-13T20:34:59.741Z,6.00
2018-09-13T20:37:28.159Z,6.40
2018-09-13T20:39:56.526Z,6.30
2018-09-13T20:42:25.060Z,5.80
2018-09-13T20:44:53.388Z,6.47
2018-09-13T20:47:21.708Z,6.23
2018-09-13T20:49:50.023Z,6.10
2018-09-13T20:52:18.449Z,6.00
2018-09-13T20:54:46.851Z,6.00
2018-09-13T20:57:15.227Z,6.20
2018-09-13T20:59:43.588Z,6.37
2018-09-13T21:02:12.015Z,6.20
2018-09-13T21:04:40.421Z,6.60
2018-09-13T21:07:08.823Z,5.93
2018-09-13T21:09:37.153Z,6.30
2018-09-13T21:12:05.463Z,6.00
2018-09-13T21:14:33.841Z,5.97
2018-09-13T21:17:02.176Z,6.27
2018-09-13T21:19:30.425Z,6.07
2018-09-13T21:21:58.818Z,6.17
2018-09-13T21:24:27.150Z,7.00
2018-09-13T21:26:57.124Z,6.63
2018-09-13T21:29:25.454Z,6.60
2018-09-13T21:31:53.789Z,6.93
2018-09-13T21:34:22.264Z,6.90
2018-09-13T21:36:50.710Z,6.57
2018-09-13T21:39:19.069Z,7.47
2018-09-13T21:41:47.528Z,7.73
2018-09-13T21:44:16.010Z,7.10
2018-09-13T21:46:44.304Z,7.17
2018-09-13T21:49:12.831Z,7.40
2018-09-13T21:51:41.271Z,7.20
2018-09-13T21:54:09.658Z,7.17
2018-09-13T21:56:38.010Z,7.47
2018-09-13T21:59:06.517Z,7.70
2018-09-13T22:01:34.862Z,7.00
2018-09-13T22:04:03.568Z,7.53
2018-09-13T22:06:31.936Z,7.33
2018-09-13T22:09:09.137Z,7.97
2018-09-13T22:11:39.027Z,8.27
2018-09-13T22:14:07.628Z,7.63
2018-09-13T22:16:36.026Z,7.33
2018-09-13T22:19:04.445Z,7.30
2018-09-13T22:21:33.286Z,7.53
2018-09-13T22:24:01.764Z,7.53
2018-09-13T22:26:30.510Z,7.77
2018-09-13T22:28:58.978Z,8.20
2018-09-13T22:31:27.287Z,7.87
2018-09-13T22:33:55.992Z,8.70
2018-09-13T22:36:28.492Z,8.60
2018-09-13T22:39:01.252Z,8.47
2018-09-13T22:41:29.699Z,8.37
2018-09-13T22:43:58.072Z,9.07
2018-09-13T22:46:26.456Z,8.93
2018-09-13T22:48:54.850Z,9.00
2018-09-13T22:51:23.251Z,9.10
2018-09-13T22:53:51.588Z,9.57
2018-09-13T22:56:20.057Z,9.57
2018-09-13T22:58:48.410Z,9.67
2018-09-13T23:01:16.720Z,8.70
2018-09-13T23:03:45.021Z,10.00
2018-09-13T23:06:13.375Z,9.80
2018-09-13T23:08:41.817Z,10.50
2018-09-13T23:11:10.207Z,11.47
2018-09-13T23:13:38.548Z,10.77
2018-09-13T23:16:07.112Z,10.97
2018-09-13T23:18:35.446Z,11.63
2018-09-13T23:21:03.793Z,12.27
2018-09-13T23:23:32.150Z,11.70
2018-09-13T23:26:00.541Z,11.73
2018-09-13T23:28:28.896Z,12.40
2018-09-13T23:30:57.335Z,13.90
2018-09-13T23:33:25.690Z,15.53
2018-09-13T23:35:54.048Z,14.67
2018-09-13T23:38:22.346Z,16.20
2018-09-13T23:40:50.790Z,17.30
2018-09-13T23:43:19.110Z,17.03
2018-09-13T23:45:47.448Z,17.03
2018-09-13T23:48:15.872Z,18.17
2018-09-13T23:50:44.257Z,18.40
2018-09-13T23:53:12.818Z,20.03
2018-09-13T23:55:41.531Z,19.90
2018-09-13T23:58:09.903Z,19.43
